Amherst, MA (01004)

9:09 PM EDT on July 23, 2016 (GMT -0400)
Amherst College | | Change Station

Elev 348 ft 42.37 °N, 72.52 °W | Updated 16 minutes ago

Scattered Clouds
Scattered Clouds
74.5 °F
Feels Like 77 °F
N
3.5
Wind Variable Wind from North

Today
High -- | Low -- °F
--% Chance of Precip.
Yesterday
High -- | Low -- °F
Precip. -- in
Pressure 29.86 in
Visibility 10.0 miles
Clouds Few 4000 ft
Scattered Clouds 20000 ft
Heat Index 77 °F
Dew Point 61 °F
Humidity 63%
Rainfall in
Snow Depth Not available.
5:34 AM 8:18 PM
Waning Gibbous, 81% visible
METAR KCEF 240058Z 34007KT 10SM FEW040 SCT200 23/14 A2985 RMK AO2A PK WND 01026/2358 SLP112 P0000 T02310144
Pressure 29.86 in
Visibility 10.0 miles
Clouds Few 4000 ft
Scattered Clouds 20000 ft
Heat Index 77 °F
Dew Point 61 °F
Humidity 63%
Rainfall in
Snow Depth Not available.
5:34 AM 8:18 PM
Waning Gibbous, 81% visible
METAR KCEF 240058Z 34007KT 10SM FEW040 SCT200 23/14 A2985 RMK AO2A PK WND 01026/2358 SLP112 P0000 T02310144

10-Day Weather Forecast

Almanac

Astronomy

Jul. 23, 2016 Rise Set
Actual Time
Civil Twilight
Nautical Twilight
Astronomical Twilight
Moon
Length of Visible Light
Length of Day
Tomorrow will be .
, % of the Moon is Illuminated

Today's Extremes

State Highs State Lows

Community

WunderPhotos

Upload Photos

1,926,992 photos uploaded!

WunderBlog® & News

Nearby

Air Quality

  Air Quality AQ Index Pollutant
Not available.

Snow Depth

Station Depth Elevation

Earthquake Activity

City Distance Mag. Time & Date
Minimum magnitude displayed is 2.5.

Coastal Water Temperatures

Place Temperature

Stations

Nearby Weather Stations

Station Location Temp. Windchill Dew Point Humidity Wind Precip. Elev Updated Type
                   

Watches & Warnings

There are currently no watches in effect.